Aviation Digital Data Service (ADDS)

Output produced by METARs form (1826 UTC 16 August 2018)
found at http://www.aviationweather.gov/adds/metars/
 
TAF SBAT 161600Z 1618/1706 33005KT 9999 SCT030 FEW035TCU TX35/1619Z TN19/1705Z 
     BECMG 1618/1620 31003KT 
     BECMG 1620/1622 18003KT FEW030 RMK PFD
       
TAF SBAN 161600Z 1618/1706 27005KT 8000 NSC TX24/1618Z TN19/1705Z 
     PROB40 
     TEMPO 1618/1705 TSRA FEW045CB 
     BECMG 1622/1624 12005KT RMK PDB
       
TAF SBAR 161600Z 1618/1706 09010KT 9999 SCT020 TX28/1618Z TN24/1705Z RMK PBO
       
TAF SBBG 161500Z 1618/1718 08010KT CAVOK TN08/1708Z TX22/1718Z 
     PROB40 
     TEMPO 1706/1712 3000 BR NSC 
     BECMG 1712/1714 03008KT RMK PDW
       
TAF SBBW 161600Z 1618/1706 16005KT 8000 NSC TX33/1618Z TN22/1705Z RMK PDB
       
TAF SBBU 161500Z 1618/1706 12012KT CAVOK TX24/1618Z TN16/1706Z RMK PDW
       
TAF SBBE 161600Z 1618/1718 35005KT 9999 BKN035 FEW040TCU TN23/1709Z T X31/1717Z 
     BECMG 1622/1624 06005KT FEW020 
     BECMG 1701/1703 CAVOK 
     BECMG 1710/1712 07010KT 9999 SCT015 
     BECMG 1712/1714 10010KT BKN025 
     BECMG 1715/1717 3 3008KT BKN030 FEW035TCU RMK PFD
       
TAF SBCF 161600Z 1618/1718 15005KT 8000 NSC TX24/1618Z TN16/1706Z 
     PROB40 
     TEMPO 1621/1706 TSRA FEW040CB 
     BECMG 1622/1624 13005KT 
     BECMG 1708/1710 10005KT 
     BECMG 1715/1717 RMK PDB
       
TAF SBBV 161600Z 1618/1718 10008KT 9999 BKN030 FEW035TCU TX33/1619Z T N25/1709Z 
     BECMG 1619/1621 SCT040 FEW045TCU 
     BECMG 1623/1701 13003KT FEW040 BECM G 1701/1703 08003KT CAVOK 
     BECMG 1704/1706 15003KT 9999 SCT030 
     BECMG 17 08/1710 01003KT FEW010 
     BECMG 1712/1714 12005KT SCT020 FEW025TCU 
     BECMG 1715/1 717 10005KT BKN035 FEW040TCU RMK PFD
       
TAF SBLP 161600Z 1618/1706 06005KT 9999 SCT030 TX35/1618Z TN24/1705Z RMK PBO
       
TAF SBBR 161600Z 1618/1718 09005KT 8000 NSC TX24/1618Z TN17/1707Z 
     PROB40 
     TEMPO 1618/1706 TSRA FEW045CB 
     BECMG 1701/1703 29005KT 
     PROB40 
     TEMPO 1706/1712 RA FEW040TCU 
     BECMG 1715/1717 08005KT RMK PDB
       
TAF SBCB 161500Z 1618/1718 22010KT 9999 FEW020 BKN040 TN18/1709Z TX25 /1716Z 
     BECMG 1709/1711 00000KT 
     BECMG 1712/1714 09010KT RMK PHD
       
TAF SBKG 161600Z 1618/1706 11013KT 9999 SCT030 TX29/1618Z TN20/1705Z 
     BECMG 1701/1703 11005KT BKN008 
     PROB30 1704/1706 4000 BR RMK PBO
       
TAF SBKP 161603Z 1618/1718 14017KT 9999 FEW035 TX20/1618Z TN15/1706Z 
     PROB30 1710/1712 BKN015 RMK PGM
       
TAF SBCG 161500Z 1618/1718 11008KT 9999 FEW045 TN16/1708Z TX26/1718Z 
     BECMG 1622/1624 08010KT CAVOK 
     BECMG 1708/1710 08015KT 
     BECMG 1714/1716 0601 0KT RMK PDW
       
TAF SBCP 161500Z 1618/1706 15010KT 8000 FEW020 BKN040 TX26/1618Z TN20/1623Z RMK PHD
       
TAF SBCR 161500Z 1618/1718 12005KT CAVOK TN18/1708Z TX30/1718Z 
     BECMG 1622/1624 21005KT 
     BECMG 1712/1714 08005KT RMK PDW
       
TAF SBCZ 161600Z 1618/1718 16003KT 8000 BKN012 TX28/1619Z TN19/1709Z 
     BECMG 1619/1621 14003KT BKN015 
     BECMG 1621/1623 SCT015 
     BECMG 1623/1701 1800 3KT 
     BECMG 1706/1708 SCT008 
     BECMG 1711/1713 SCT015 
     BECMG 1714/1716 SCT020 RMK PFD
       
TAF SBCY 161600Z 1618/1718 18005KT 9999 BKN020 TX29/1619Z TN19/1710Z 
     BECMG 1618/1620 SCT020 
     BECMG 1621/1623 CAVOK 
     BECMG 1700/1702 20003KT 
     BECMG 1703/1705 22003KT 
     BECMG 1707/1709 18003KT 
     BECMG 1715/1717 18005KT RMK PFD
       
TAF SBCT 161500Z 1618/1718 11008KT 9999 BKN006 TN09/1708Z TX16/1718Z 
     BECMG 1618/1620 BKN008 
     BECMG 1622/1624 BKN006 OVC008 
     TEMPO 1706/1712 5000 DZ BR BKN004 OVC006 
     BECMG 1712/1714 BKN012 
     BECMG 1714/1716 BKN023 
     BECMG 1716/1718 SCT025 RMK PDW
       
TAF SBBI 161500Z 1618/1706 12008KT 9999 BKN006 TX13/1618Z TN09/1706Z 
     BECMG 1618/1620 BKN008 
     BECMG 1622/1624 OVC006 RMK PDW
       
TAF SBFN 161600Z 1618/1706 12013KT 8000 SCT015 BKN020 TX29/1618Z TN25 /1723Z RMK PBO
       
TAF SBFL 161500Z 1618/1718 16006KT 9999 FEW045 TN14/1708Z TX22/1718Z 
     BECMG 1700/1702 22005KT BKN040 
     BECMG 1714/1716 12007KT SCT040 RMK PDW
       
TAF SBFZ 161600Z 1618/1718 09015KT 8000 SCT020 TN25/1709Z TX30/1715Z 
     BECMG 1623/1701 09009KT 
     BECMG 1705/1707 12008KT 
     BECMG 1712/1714 09015KT RMK PBO
       
TAF SBFI 161500Z 1618/1718 11005KT CAVOK TN14/1708Z TX28/1718Z 
     PROB40 
     TEMPO 1706/1712 5000 BR NSC RMK PDW
       
TAF SBGO 161600Z 1618/1718 29005KT 8000 NSC TX28/1618Z TN20/1710Z 
     PROB40 
     TEMPO 1618/1706 TSRA FEW045CB 
     BECMG 1622/1624 09005KT 
     BECMG 1703/1705 29005KT 
     BECMG 1707/1709 36005KT 
     BECMG 1715/1717 27005KT RMK PDB
       
TAF SBGW 161500Z 1618/1706 16007KT 8000 BKN030 TX21/1618Z TN16/1706Z 
     PROB40 
     TEMPO 1623/1702 5000 TSRA BR BKN020 FEW030CB 
     BECMG 1702/1704 5000 BR BKN015 RMK PDW
       
TAF SBIL 161600Z 1618/1706 10008KT 8000 SCT006 SCT030 TX27/1618Z TN22/1705Z 
     PROB30 1618/1624 3500 RA BR BKN008 BKN015 RMK PBO
       
TAF SBIZ 161600Z 1618/1706 10005KT 9999 SCT025 TX35/1619Z TN23/1705Z 
     FM162100 00000KT CAVOK RMK PFD
       
TAF SBIH 161600Z 1618/1706 09005KT 9999 FEW025 FEW030TCU TX34/1619Z TN20/1705Z 
     FM162400 11003KT CAVOK RMK PFD